This is the latest recevied weather packets stored in our database for station/object DO3HUM-5. If no packets are shown the sender has not sent any weather packets the latest 10 day(s).
| Time | Temp. | Humidity | Pressure | Rain* | Wind** | Luminosity | Snow |
|---|---|---|---|---|---|---|---|
| 1777801549 | 25.56° C | 43% | 1020.7 hPa | 0 mm | - | - | - |
| 1777800947 | 25.56° C | 42% | 1020.9 hPa | 0 mm | - | - | - |
| 1777800343 | 25.56° C | 42% | 1020.9 hPa | 0 mm | - | - | - |
| 1777799742 | 25° C | 42% | 1020.9 hPa | 0 mm | - | - | - |
| 1777799139 | 24.44° C | 43% | 1020.9 hPa | 0 mm | - | - | - |
| 1777798535 | 23.89° C | 44% | 1021 hPa | 0 mm | - | - | - |
| 1777797932 | 23.89° C | 44% | 1021 hPa | 0 mm | - | - | - |
| 1777797329 | 24.44° C | 44% | 1021.1 hPa | 0 mm | - | - | - |
| 1777796728 | 23.89° C | 45% | 1021.1 hPa | 0 mm | - | - | - |
| 1777796125 | 23.89° C | 46% | 1021.2 hPa | 0 mm | - | - | - |
| 1777795519 | 22.22° C | 51% | 1021.2 hPa | 0 mm | - | - | - |
| 1777794977 | 21.67° C | 53% | 1021.2 hPa | 0 mm | - | - | - |
| 1777794372 | 20.56° C | 54% | 1021.3 hPa | 0 mm | - | - | - |
| 1777793769 | 19.44° C | 55% | 1021.3 hPa | 0 mm | - | - | - |
| 1777793166 | 20° C | 54% | 1021.3 hPa | 0 mm | - | - | - |
| 1777792563 | 19.44° C | 56% | 1021.3 hPa | 0 mm | - | - | - |
| 1777791960 | 18.33° C | 54% | 1021.4 hPa | 0 mm | - | - | - |
| 1777791357 | 17.22° C | 56% | 1021.3 hPa | 0 mm | - | - | - |
| 1777790755 | 17.22° C | 56% | 1021.4 hPa | 0 mm | - | - | - |
| 1777790146 | 16.11° C | 60% | 1021.4 hPa | 0 mm | - | - | - |
| 1777789543 | 16.67° C | 59% | 1021.3 hPa | 0 mm | - | - | - |
| 1777788935 | 15.56° C | 59% | 1021.3 hPa | 0 mm | - | - | - |
| 1777788332 | 14.44° C | 61% | 1021.3 hPa | 0 mm | - | - | - |
| 1777787723 | 14.44° C | 62% | 1021.3 hPa | 0 mm | - | - | - |
| 1777787122 | 14.44° C | 63% | 1021.4 hPa | 0 mm | - | - | - |
* Rain latest hour (hover to see other rain measurements)
** Current wind speed in m/s (hover to see current wind gust speed)